sensor_id;sensor_type;location;lat;lon;timestamp;P1;durP1;ratioP1;P2;durP2;ratioP2
28762;SDS011;15918;51.270;6.522;2024-01-07T00:00:34;44.13;;;39.38;;
28762;SDS011;15918;51.270;6.522;2024-01-07T00:02:59;42.85;;;38.25;;
28762;SDS011;15918;51.270;6.522;2024-01-07T00:05:25;41.13;;;36.65;;
28762;SDS011;15918;51.270;6.522;2024-01-07T00:07:50;46.25;;;38.38;;
28762;SDS011;15918;51.270;6.522;2024-01-07T00:10:16;41.47;;;37.08;;
28762;SDS011;15918;51.270;6.522;2024-01-07T00:12:42;41.83;;;37.28;;
28762;SDS011;15918;51.270;6.522;2024-01-07T00:15:09;42.70;;;37.42;;
28762;SDS011;15918;51.270;6.522;2024-01-07T00:17:35;42.00;;;37.38;;
28762;SDS011;15918;51.270;6.522;2024-01-07T00:20:00;41.78;;;37.05;;
28762;SDS011;15918;51.270;6.522;2024-01-07T00:22:26;41.40;;;36.95;;
28762;SDS011;15918;51.270;6.522;2024-01-07T00:24:51;40.22;;;35.92;;
28762;SDS011;15918;51.270;6.522;2024-01-07T00:27:17;38.38;;;34.25;;
28762;SDS011;15918;51.270;6.522;2024-01-07T00:29:43;38.40;;;34.30;;
28762;SDS011;15918;51.270;6.522;2024-01-07T00:32:08;37.67;;;33.08;;
28762;SDS011;15918;51.270;6.522;2024-01-07T00:34:34;39.28;;;34.95;;
28762;SDS011;15918;51.270;6.522;2024-01-07T00:36:59;36.53;;;32.70;;
28762;SDS011;15918;51.270;6.522;2024-01-07T00:39:25;36.00;;;32.40;;
28762;SDS011;15918;51.270;6.522;2024-01-07T00:41:50;36.47;;;32.60;;
28762;SDS011;15918;51.270;6.522;2024-01-07T00:44:16;36.08;;;32.22;;
28762;SDS011;15918;51.270;6.522;2024-01-07T00:46:41;34.75;;;31.10;;
28762;SDS011;15918;51.270;6.522;2024-01-07T00:49:07;35.88;;;32.08;;
28762;SDS011;15918;51.270;6.522;2024-01-07T00:51:33;37.03;;;32.83;;
28762;SDS011;15918;51.270;6.522;2024-01-07T00:53:58;39.28;;;33.97;;
28762;SDS011;15918;51.270;6.522;2024-01-07T00:56:27;37.42;;;32.78;;
28762;SDS011;15918;51.270;6.522;2024-01-07T00:58:53;35.65;;;31.88;;
28762;SDS011;15918;51.270;6.522;2024-01-07T01:01:18;36.75;;;32.85;;
28762;SDS011;15918;51.270;6.522;2024-01-07T01:03:44;36.90;;;32.97;;
28762;SDS011;15918;51.270;6.522;2024-01-07T01:06:09;35.40;;;31.75;;
28762;SDS011;15918;51.270;6.522;2024-01-07T01:08:35;35.95;;;32.15;;
28762;SDS011;15918;51.270;6.522;2024-01-07T01:11:01;36.08;;;32.30;;
28762;SDS011;15918;51.270;6.522;2024-01-07T01:13:26;34.42;;;30.88;;
28762;SDS011;15918;51.270;6.522;2024-01-07T01:15:52;33.80;;;30.17;;
28762;SDS011;15918;51.270;6.522;2024-01-07T01:18:17;34.75;;;31.15;;
28762;SDS011;15918;51.270;6.522;2024-01-07T01:20:43;34.47;;;30.77;;
28762;SDS011;15918;51.270;6.522;2024-01-07T01:23:08;32.45;;;28.95;;
28762;SDS011;15918;51.270;6.522;2024-01-07T01:25:34;30.73;;;27.42;;
28762;SDS011;15918;51.270;6.522;2024-01-07T01:28:01;32.55;;;29.08;;
28762;SDS011;15918;51.270;6.522;2024-01-07T01:30:26;29.50;;;26.48;;
28762;SDS011;15918;51.270;6.522;2024-01-07T01:32:55;30.35;;;27.17;;
28762;SDS011;15918;51.270;6.522;2024-01-07T01:35:21;29.98;;;26.90;;
28762;SDS011;15918;51.270;6.522;2024-01-07T01:37:46;29.67;;;26.70;;
28762;SDS011;15918;51.270;6.522;2024-01-07T01:40:12;28.40;;;24.80;;
28762;SDS011;15918;51.270;6.522;2024-01-07T01:42:38;28.70;;;25.73;;
28762;SDS011;15918;51.270;6.522;2024-01-07T01:45:03;27.48;;;24.58;;
28762;SDS011;15918;51.270;6.522;2024-01-07T01:47:30;26.30;;;23.52;;
28762;SDS011;15918;51.270;6.522;2024-01-07T01:49:56;26.45;;;23.85;;
28762;SDS011;15918;51.270;6.522;2024-01-07T01:52:22;26.73;;;23.92;;
28762;SDS011;15918;51.270;6.522;2024-01-07T01:54:48;25.77;;;23.08;;
28762;SDS011;15918;51.270;6.522;2024-01-07T01:57:15;25.10;;;21.92;;
28762;SDS011;15918;51.270;6.522;2024-01-07T01:59:44;25.45;;;22.85;;
28762;SDS011;15918;51.270;6.522;2024-01-07T02:02:10;24.75;;;22.25;;
28762;SDS011;15918;51.270;6.522;2024-01-07T02:04:36;24.80;;;22.25;;
28762;SDS011;15918;51.270;6.522;2024-01-07T02:07:02;24.27;;;21.90;;
28762;SDS011;15918;51.270;6.522;2024-01-07T02:09:27;24.60;;;22.30;;
28762;SDS011;15918;51.270;6.522;2024-01-07T02:12:00;25.13;;;22.63;;
28762;SDS011;15918;51.270;6.522;2024-01-07T02:14:29;24.00;;;21.58;;
28762;SDS011;15918;51.270;6.522;2024-01-07T02:16:54;23.00;;;20.75;;
28762;SDS011;15918;51.270;6.522;2024-01-07T02:19:20;24.63;;;22.13;;
28762;SDS011;15918;51.270;6.522;2024-01-07T02:21:47;23.42;;;21.13;;
28762;SDS011;15918;51.270;6.522;2024-01-07T02:24:16;23.88;;;21.60;;
28762;SDS011;15918;51.270;6.522;2024-01-07T02:26:42;23.52;;;21.20;;
28762;SDS011;15918;51.270;6.522;2024-01-07T02:29:07;22.08;;;19.90;;
28762;SDS011;15918;51.270;6.522;2024-01-07T02:31:33;22.85;;;20.73;;
28762;SDS011;15918;51.270;6.522;2024-01-07T02:33:58;19.95;;;18.05;;
28762;SDS011;15918;51.270;6.522;2024-01-07T02:36:24;20.05;;;18.05;;
28762;SDS011;15918;51.270;6.522;2024-01-07T02:38:49;22.02;;;19.92;;
28762;SDS011;15918;51.270;6.522;2024-01-07T02:41:15;20.00;;;18.05;;
28762;SDS011;15918;51.270;6.522;2024-01-07T02:43:40;21.33;;;19.23;;
28762;SDS011;15918;51.270;6.522;2024-01-07T02:46:06;20.70;;;18.80;;
28762;SDS011;15918;51.270;6.522;2024-01-07T02:48:32;20.77;;;18.77;;
28762;SDS011;15918;51.270;6.522;2024-01-07T02:50:58;19.48;;;17.67;;
28762;SDS011;15918;51.270;6.522;2024-01-07T02:53:23;21.58;;;19.48;;
28762;SDS011;15918;51.270;6.522;2024-01-07T02:55:49;23.02;;;20.85;;
28762;SDS011;15918;51.270;6.522;2024-01-07T02:58:14;22.55;;;20.38;;
28762;SDS011;15918;51.270;6.522;2024-01-07T03:00:40;24.02;;;21.73;;
28762;SDS011;15918;51.270;6.522;2024-01-07T03:03:06;24.67;;;22.27;;
28762;SDS011;15918;51.270;6.522;2024-01-07T03:05:31;24.83;;;22.38;;
28762;SDS011;15918;51.270;6.522;2024-01-07T03:07:58;24.15;;;21.75;;
28762;SDS011;15918;51.270;6.522;2024-01-07T03:10:25;24.45;;;21.85;;
28762;SDS011;15918;51.270;6.522;2024-01-07T03:12:51;24.20;;;21.90;;
28762;SDS011;15918;51.270;6.522;2024-01-07T03:15:16;25.50;;;23.00;;
28762;SDS011;15918;51.270;6.522;2024-01-07T03:17:42;26.10;;;23.60;;
28762;SDS011;15918;51.270;6.522;2024-01-07T03:20:08;27.08;;;24.58;;
28762;SDS011;15918;51.270;6.522;2024-01-07T03:22:34;25.27;;;22.70;;
28762;SDS011;15918;51.270;6.522;2024-01-07T03:25:00;26.70;;;23.95;;
28762;SDS011;15918;51.270;6.522;2024-01-07T03:27:26;26.83;;;24.13;;
28762;SDS011;15918;51.270;6.522;2024-01-07T03:29:51;25.90;;;23.20;;
28762;SDS011;15918;51.270;6.522;2024-01-07T03:32:17;27.55;;;24.83;;
28762;SDS011;15918;51.270;6.522;2024-01-07T03:34:43;30.40;;;27.30;;
28762;SDS011;15918;51.270;6.522;2024-01-07T03:37:08;31.33;;;27.92;;
28762;SDS011;15918;51.270;6.522;2024-01-07T03:39:34;33.30;;;29.70;;
28762;SDS011;15918;51.270;6.522;2024-01-07T03:41:59;35.65;;;30.48;;
28762;SDS011;15918;51.270;6.522;2024-01-07T03:44:25;35.20;;;31.40;;
28762;SDS011;15918;51.270;6.522;2024-01-07T03:46:51;37.58;;;33.47;;
28762;SDS011;15918;51.270;6.522;2024-01-07T03:49:16;37.40;;;32.72;;
28762;SDS011;15918;51.270;6.522;2024-01-07T03:51:45;37.92;;;33.00;;
28762;SDS011;15918;51.270;6.522;2024-01-07T03:54:11;38.53;;;34.42;;
28762;SDS011;15918;51.270;6.522;2024-01-07T03:56:36;35.92;;;32.10;;
28762;SDS011;15918;51.270;6.522;2024-01-07T03:59:02;37.38;;;32.53;;
28762;SDS011;15918;51.270;6.522;2024-01-07T04:01:27;36.35;;;32.55;;
28762;SDS011;15918;51.270;6.522;2024-01-07T04:03:53;37.20;;;33.13;;
28762;SDS011;15918;51.270;6.522;2024-01-07T04:06:18;36.08;;;32.17;;
28762;SDS011;15918;51.270;6.522;2024-01-07T04:08:45;37.05;;;33.17;;
28762;SDS011;15918;51.270;6.522;2024-01-07T04:11:11;35.20;;;31.38;;
28762;SDS011;15918;51.270;6.522;2024-01-07T04:13:36;32.55;;;29.05;;
28762;SDS011;15918;51.270;6.522;2024-01-07T04:16:02;32.13;;;28.80;;
28762;SDS011;15918;51.270;6.522;2024-01-07T04:18:28;32.25;;;28.85;;
28762;SDS011;15918;51.270;6.522;2024-01-07T04:20:53;32.97;;;28.65;;
28762;SDS011;15918;51.270;6.522;2024-01-07T04:23:19;29.92;;;26.63;;
28762;SDS011;15918;51.270;6.522;2024-01-07T04:25:44;30.70;;;27.50;;
28762;SDS011;15918;51.270;6.522;2024-01-07T04:28:10;29.58;;;26.58;;
28762;SDS011;15918;51.270;6.522;2024-01-07T04:30:36;31.00;;;26.77;;
28762;SDS011;15918;51.270;6.522;2024-01-07T04:33:02;30.23;;;26.35;;
28762;SDS011;15918;51.270;6.522;2024-01-07T04:35:27;29.65;;;26.60;;
28762;SDS011;15918;51.270;6.522;2024-01-07T04:37:53;29.17;;;26.05;;
28762;SDS011;15918;51.270;6.522;2024-01-07T04:40:19;26.90;;;24.10;;
28762;SDS011;15918;51.270;6.522;2024-01-07T04:42:44;26.70;;;24.05;;
28762;SDS011;15918;51.270;6.522;2024-01-07T04:45:10;26.33;;;23.70;;
28762;SDS011;15918;51.270;6.522;2024-01-07T04:47:35;25.48;;;22.88;;
28762;SDS011;15918;51.270;6.522;2024-01-07T04:50:01;24.98;;;22.30;;
28762;SDS011;15918;51.270;6.522;2024-01-07T04:52:27;24.98;;;22.48;;
28762;SDS011;15918;51.270;6.522;2024-01-07T04:54:53;24.98;;;22.58;;
28762;SDS011;15918;51.270;6.522;2024-01-07T04:57:20;25.00;;;22.60;;
28762;SDS011;15918;51.270;6.522;2024-01-07T04:59:46;24.35;;;22.05;;
28762;SDS011;15918;51.270;6.522;2024-01-07T05:02:12;25.63;;;23.05;;
28762;SDS011;15918;51.270;6.522;2024-01-07T05:04:38;25.45;;;22.95;;
28762;SDS011;15918;51.270;6.522;2024-01-07T05:07:03;26.55;;;23.90;;
28762;SDS011;15918;51.270;6.522;2024-01-07T05:09:29;25.52;;;23.13;;
28762;SDS011;15918;51.270;6.522;2024-01-07T05:11:56;28.00;;;25.23;;
28762;SDS011;15918;51.270;6.522;2024-01-07T05:14:22;26.00;;;23.52;;
28762;SDS011;15918;51.270;6.522;2024-01-07T05:16:48;27.65;;;24.92;;
28762;SDS011;15918;51.270;6.522;2024-01-07T05:19:14;27.05;;;24.40;;
28762;SDS011;15918;51.270;6.522;2024-01-07T05:21:39;26.75;;;24.05;;
28762;SDS011;15918;51.270;6.522;2024-01-07T05:24:05;26.50;;;23.77;;
28762;SDS011;15918;51.270;6.522;2024-01-07T05:26:31;27.17;;;24.38;;
28762;SDS011;15918;51.270;6.522;2024-01-07T05:29:02;23.90;;;21.60;;
28762;SDS011;15918;51.270;6.522;2024-01-07T05:31:28;23.42;;;21.10;;
28762;SDS011;15918;51.270;6.522;2024-01-07T05:33:53;22.45;;;20.25;;
28762;SDS011;15918;51.270;6.522;2024-01-07T05:36:19;22.83;;;20.67;;
28762;SDS011;15918;51.270;6.522;2024-01-07T05:38:45;21.35;;;19.13;;
28762;SDS011;15918;51.270;6.522;2024-01-07T05:41:10;22.23;;;20.08;;
28762;SDS011;15918;51.270;6.522;2024-01-07T05:43:36;21.80;;;19.60;;
28762;SDS011;15918;51.270;6.522;2024-01-07T05:46:02;22.20;;;19.90;;
28762;SDS011;15918;51.270;6.522;2024-01-07T05:48:28;19.73;;;17.83;;
28762;SDS011;15918;51.270;6.522;2024-01-07T05:50:54;20.88;;;18.90;;
28762;SDS011;15918;51.270;6.522;2024-01-07T05:53:19;21.25;;;19.27;;
28762;SDS011;15918;51.270;6.522;2024-01-07T05:55:45;21.20;;;19.17;;
28762;SDS011;15918;51.270;6.522;2024-01-07T05:58:10;20.15;;;18.15;;
28762;SDS011;15918;51.270;6.522;2024-01-07T06:00:36;20.58;;;18.58;;
28762;SDS011;15918;51.270;6.522;2024-01-07T06:03:02;20.60;;;18.60;;
28762;SDS011;15918;51.270;6.522;2024-01-07T06:05:28;20.45;;;18.45;;
28762;SDS011;15918;51.270;6.522;2024-01-07T06:07:54;18.73;;;17.02;;
28762;SDS011;15918;51.270;6.522;2024-01-07T06:10:20;21.23;;;19.23;;
28762;SDS011;15918;51.270;6.522;2024-01-07T06:12:46;21.50;;;19.40;;
28762;SDS011;15918;51.270;6.522;2024-01-07T06:15:11;20.67;;;18.60;;
28762;SDS011;15918;51.270;6.522;2024-01-07T06:17:37;19.35;;;17.50;;
28762;SDS011;15918;51.270;6.522;2024-01-07T06:20:03;19.75;;;17.83;;
28762;SDS011;15918;51.270;6.522;2024-01-07T06:22:28;18.90;;;17.10;;
28762;SDS011;15918;51.270;6.522;2024-01-07T06:24:54;19.40;;;17.45;;
28762;SDS011;15918;51.270;6.522;2024-01-07T06:27:20;20.10;;;18.15;;
28762;SDS011;15918;51.270;6.522;2024-01-07T06:29:45;20.30;;;18.30;;
28762;SDS011;15918;51.270;6.522;2024-01-07T06:32:11;21.80;;;19.75;;
28762;SDS011;15918;51.270;6.522;2024-01-07T06:34:36;22.27;;;20.17;;
28762;SDS011;15918;51.270;6.522;2024-01-07T06:37:02;22.40;;;20.13;;
28762;SDS011;15918;51.270;6.522;2024-01-07T06:39:28;23.23;;;21.02;;
28762;SDS011;15918;51.270;6.522;2024-01-07T06:41:54;23.00;;;20.70;;
28762;SDS011;15918;51.270;6.522;2024-01-07T06:44:19;22.77;;;20.35;;
28762;SDS011;15918;51.270;6.522;2024-01-07T06:46:45;22.05;;;19.95;;
28762;SDS011;15918;51.270;6.522;2024-01-07T06:49:11;23.05;;;20.85;;
28762;SDS011;15918;51.270;6.522;2024-01-07T06:51:37;23.55;;;21.13;;
28762;SDS011;15918;51.270;6.522;2024-01-07T06:54:03;22.92;;;20.63;;
28762;SDS011;15918;51.270;6.522;2024-01-07T06:56:29;22.27;;;20.00;;
28762;SDS011;15918;51.270;6.522;2024-01-07T06:58:54;21.77;;;19.67;;
28762;SDS011;15918;51.270;6.522;2024-01-07T07:01:20;22.55;;;20.30;;
28762;SDS011;15918;51.270;6.522;2024-01-07T07:03:49;22.00;;;19.90;;
28762;SDS011;15918;51.270;6.522;2024-01-07T07:06:15;22.00;;;19.83;;
28762;SDS011;15918;51.270;6.522;2024-01-07T07:08:41;21.70;;;19.58;;
28762;SDS011;15918;51.270;6.522;2024-01-07T07:11:07;22.17;;;19.98;;
28762;SDS011;15918;51.270;6.522;2024-01-07T07:13:32;21.52;;;19.33;;
28762;SDS011;15918;51.270;6.522;2024-01-07T07:15:58;21.10;;;19.05;;
28762;SDS011;15918;51.270;6.522;2024-01-07T07:18:24;20.73;;;18.70;;
28762;SDS011;15918;51.270;6.522;2024-01-07T07:20:50;22.17;;;19.88;;
28762;SDS011;15918;51.270;6.522;2024-01-07T07:23:16;21.85;;;19.67;;
28762;SDS011;15918;51.270;6.522;2024-01-07T07:25:41;22.25;;;20.05;;
28762;SDS011;15918;51.270;6.522;2024-01-07T07:28:07;22.88;;;20.55;;
28762;SDS011;15918;51.270;6.522;2024-01-07T07:30:32;22.08;;;19.77;;
28762;SDS011;15918;51.270;6.522;2024-01-07T07:32:58;22.15;;;19.95;;
28762;SDS011;15918;51.270;6.522;2024-01-07T07:35:24;21.08;;;18.98;;
28762;SDS011;15918;51.270;6.522;2024-01-07T07:37:49;20.95;;;18.85;;
28762;SDS011;15918;51.270;6.522;2024-01-07T07:40:15;24.17;;;21.70;;
28762;SDS011;15918;51.270;6.522;2024-01-07T07:42:40;22.10;;;20.05;;
28762;SDS011;15918;51.270;6.522;2024-01-07T07:45:07;20.60;;;18.67;;
28762;SDS011;15918;51.270;6.522;2024-01-07T07:47:32;21.25;;;19.27;;
28762;SDS011;15918;51.270;6.522;2024-01-07T07:49:58;20.98;;;18.98;;
28762;SDS011;15918;51.270;6.522;2024-01-07T07:52:24;21.65;;;19.45;;
28762;SDS011;15918;51.270;6.522;2024-01-07T07:54:51;21.95;;;19.67;;
28762;SDS011;15918;51.270;6.522;2024-01-07T07:57:17;21.35;;;19.15;;
28762;SDS011;15918;51.270;6.522;2024-01-07T07:59:45;21.10;;;19.08;;
28762;SDS011;15918;51.270;6.522;2024-01-07T08:02:11;22.38;;;19.98;;
28762;SDS011;15918;51.270;6.522;2024-01-07T08:04:37;21.27;;;19.08;;
28762;SDS011;15918;51.270;6.522;2024-01-07T08:07:06;22.90;;;20.63;;
28762;SDS011;15918;51.270;6.522;2024-01-07T08:09:31;21.38;;;19.35;;
28762;SDS011;15918;51.270;6.522;2024-01-07T08:11:57;22.40;;;20.20;;
28762;SDS011;15918;51.270;6.522;2024-01-07T08:14:23;21.08;;;19.10;;
28762;SDS011;15918;51.270;6.522;2024-01-07T08:16:48;20.85;;;18.75;;
28762;SDS011;15918;51.270;6.522;2024-01-07T08:19:14;20.80;;;18.73;;
28762;SDS011;15918;51.270;6.522;2024-01-07T08:21:40;20.35;;;18.35;;
28762;SDS011;15918;51.270;6.522;2024-01-07T08:24:05;19.40;;;17.58;;
28762;SDS011;15918;51.270;6.522;2024-01-07T08:26:31;20.25;;;18.35;;
28762;SDS011;15918;51.270;6.522;2024-01-07T08:28:56;21.20;;;19.20;;
28762;SDS011;15918;51.270;6.522;2024-01-07T08:31:22;21.60;;;19.42;;
28762;SDS011;15918;51.270;6.522;2024-01-07T08:33:47;21.23;;;19.05;;
28762;SDS011;15918;51.270;6.522;2024-01-07T08:36:13;20.83;;;18.77;;
28762;SDS011;15918;51.270;6.522;2024-01-07T08:38:38;21.65;;;19.48;;
28762;SDS011;15918;51.270;6.522;2024-01-07T08:41:04;22.20;;;19.95;;
28762;SDS011;15918;51.270;6.522;2024-01-07T08:43:30;21.80;;;19.55;;
28762;SDS011;15918;51.270;6.522;2024-01-07T08:45:55;22.10;;;19.63;;
28762;SDS011;15918;51.270;6.522;2024-01-07T08:48:21;21.88;;;19.60;;
28762;SDS011;15918;51.270;6.522;2024-01-07T08:50:46;19.70;;;17.65;;
28762;SDS011;15918;51.270;6.522;2024-01-07T08:53:12;21.55;;;19.30;;
28762;SDS011;15918;51.270;6.522;2024-01-07T08:55:38;19.35;;;17.35;;
28762;SDS011;15918;51.270;6.522;2024-01-07T08:58:03;18.40;;;16.60;;
28762;SDS011;15918;51.270;6.522;2024-01-07T09:00:29;17.95;;;16.15;;
28762;SDS011;15918;51.270;6.522;2024-01-07T09:02:56;17.15;;;15.48;;
28762;SDS011;15918;51.270;6.522;2024-01-07T09:05:22;17.02;;;15.23;;
28762;SDS011;15918;51.270;6.522;2024-01-07T09:07:49;17.48;;;15.73;;
28762;SDS011;15918;51.270;6.522;2024-01-07T09:10:15;16.58;;;14.98;;
28762;SDS011;15918;51.270;6.522;2024-01-07T09:12:40;16.83;;;15.20;;
28762;SDS011;15918;51.270;6.522;2024-01-07T09:15:06;17.23;;;15.45;;
28762;SDS011;15918;51.270;6.522;2024-01-07T09:17:34;16.13;;;14.57;;
28762;SDS011;15918;51.270;6.522;2024-01-07T09:20:01;17.40;;;15.45;;
28762;SDS011;15918;51.270;6.522;2024-01-07T09:22:29;15.57;;;14.18;;
28762;SDS011;15918;51.270;6.522;2024-01-07T09:24:55;16.58;;;14.93;;
28762;SDS011;15918;51.270;6.522;2024-01-07T09:27:21;16.23;;;14.52;;
28762;SDS011;15918;51.270;6.522;2024-01-07T09:29:46;17.27;;;15.68;;
28762;SDS011;15918;51.270;6.522;2024-01-07T09:32:12;15.02;;;13.55;;
28762;SDS011;15918;51.270;6.522;2024-01-07T09:34:37;17.27;;;15.57;;
28762;SDS011;15918;51.270;6.522;2024-01-07T09:37:03;18.08;;;16.27;;
28762;SDS011;15918;51.270;6.522;2024-01-07T09:39:29;19.02;;;16.73;;
28762;SDS011;15918;51.270;6.522;2024-01-07T09:41:54;18.77;;;16.77;;
28762;SDS011;15918;51.270;6.522;2024-01-07T09:44:20;17.23;;;15.52;;
28762;SDS011;15918;51.270;6.522;2024-01-07T09:46:46;18.55;;;16.75;;
28762;SDS011;15918;51.270;6.522;2024-01-07T09:49:16;18.08;;;16.27;;
28762;SDS011;15918;51.270;6.522;2024-01-07T09:51:42;18.13;;;16.42;;
28762;SDS011;15918;51.270;6.522;2024-01-07T09:54:11;17.55;;;15.75;;
28762;SDS011;15918;51.270;6.522;2024-01-07T09:56:42;17.80;;;16.08;;
28762;SDS011;15918;51.270;6.522;2024-01-07T09:59:22;18.42;;;15.85;;
28762;SDS011;15918;51.270;6.522;2024-01-07T10:01:47;17.52;;;15.30;;
28762;SDS011;15918;51.270;6.522;2024-01-07T10:04:15;18.23;;;16.33;;
28762;SDS011;15918;51.270;6.522;2024-01-07T10:06:40;19.02;;;17.13;;
28762;SDS011;15918;51.270;6.522;2024-01-07T10:09:06;17.25;;;15.55;;
28762;SDS011;15918;51.270;6.522;2024-01-07T10:11:32;16.60;;;14.90;;
28762;SDS011;15918;51.270;6.522;2024-01-07T10:13:58;16.35;;;14.65;;
28762;SDS011;15918;51.270;6.522;2024-01-07T10:16:24;16.67;;;14.85;;
28762;SDS011;15918;51.270;6.522;2024-01-07T10:18:50;15.55;;;13.95;;
28762;SDS011;15918;51.270;6.522;2024-01-07T10:21:15;16.13;;;14.52;;
28762;SDS011;15918;51.270;6.522;2024-01-07T10:23:41;15.38;;;13.88;;
28762;SDS011;15918;51.270;6.522;2024-01-07T10:26:07;15.50;;;13.77;;
28762;SDS011;15918;51.270;6.522;2024-01-07T10:28:32;15.70;;;14.07;;
28762;SDS011;15918;51.270;6.522;2024-01-07T10:30:58;14.85;;;13.35;;
28762;SDS011;15918;51.270;6.522;2024-01-07T10:33:24;14.52;;;13.13;;
28762;SDS011;15918;51.270;6.522;2024-01-07T10:35:55;15.13;;;13.63;;
28762;SDS011;15918;51.270;6.522;2024-01-07T10:38:24;15.30;;;13.80;;
28762;SDS011;15918;51.270;6.522;2024-01-07T10:40:50;14.48;;;13.07;;
28762;SDS011;15918;51.270;6.522;2024-01-07T10:43:19;13.82;;;12.50;;
28762;SDS011;15918;51.270;6.522;2024-01-07T10:45:46;14.50;;;13.10;;
28762;SDS011;15918;51.270;6.522;2024-01-07T10:48:17;13.70;;;12.40;;
28762;SDS011;15918;51.270;6.522;2024-01-07T10:50:44;14.30;;;12.90;;
28762;SDS011;15918;51.270;6.522;2024-01-07T10:53:12;15.25;;;13.75;;
28762;SDS011;15918;51.270;6.522;2024-01-07T10:55:44;14.38;;;13.07;;
28762;SDS011;15918;51.270;6.522;2024-01-07T10:58:16;14.68;;;13.23;;
28762;SDS011;15918;51.270;6.522;2024-01-07T11:00:44;16.77;;;15.18;;
28762;SDS011;15918;51.270;6.522;2024-01-07T11:03:11;16.27;;;14.77;;
28762;SDS011;15918;51.270;6.522;2024-01-07T11:05:44;16.67;;;14.95;;
28762;SDS011;15918;51.270;6.522;2024-01-07T11:10:55;16.60;;;15.00;;
28762;SDS011;15918;51.270;6.522;2024-01-07T11:13:46;15.85;;;14.15;;
28762;SDS011;15918;51.270;6.522;2024-01-07T11:16:12;16.23;;;14.48;;
28762;SDS011;15918;51.270;6.522;2024-01-07T11:18:38;14.93;;;13.35;;
28762;SDS011;15918;51.270;6.522;2024-01-07T11:21:04;14.45;;;13.02;;
28762;SDS011;15918;51.270;6.522;2024-01-07T11:23:34;13.73;;;12.30;;
28762;SDS011;15918;51.270;6.522;2024-01-07T11:26:05;14.50;;;12.77;;
28762;SDS011;15918;51.270;6.522;2024-01-07T11:28:47;17.95;;;13.50;;
28762;SDS011;15918;51.270;6.522;2024-01-07T11:31:13;13.73;;;12.23;;
28762;SDS011;15918;51.270;6.522;2024-01-07T11:33:50;13.13;;;11.75;;
28762;SDS011;15918;51.270;6.522;2024-01-07T11:36:16;13.30;;;11.77;;
28762;SDS011;15918;51.270;6.522;2024-01-07T11:38:51;13.00;;;11.60;;
28762;SDS011;15918;51.270;6.522;2024-01-07T11:41:18;13.70;;;12.23;;
28762;SDS011;15918;51.270;6.522;2024-01-07T11:43:55;12.50;;;11.20;;
28762;SDS011;15918;51.270;6.522;2024-01-07T11:46:24;13.65;;;10.98;;
28762;SDS011;15918;51.270;6.522;2024-01-07T11:48:50;13.30;;;11.45;;
28762;SDS011;15918;51.270;6.522;2024-01-07T11:51:18;12.13;;;10.82;;
28762;SDS011;15918;51.270;6.522;2024-01-07T11:53:47;12.68;;;11.43;;
28762;SDS011;15918;51.270;6.522;2024-01-07T11:56:13;14.10;;;10.85;;
28762;SDS011;15918;51.270;6.522;2024-01-07T11:58:39;13.55;;;11.32;;
28762;SDS011;15918;51.270;6.522;2024-01-07T12:01:05;13.90;;;10.82;;
28762;SDS011;15918;51.270;6.522;2024-01-07T12:03:31;12.88;;;9.63;;
28762;SDS011;15918;51.270;6.522;2024-01-07T12:05:57;11.25;;;10.15;;
28762;SDS011;15918;51.270;6.522;2024-01-07T12:08:22;11.30;;;9.43;;
28762;SDS011;15918;51.270;6.522;2024-01-07T12:10:48;10.63;;;9.10;;
28762;SDS011;15918;51.270;6.522;2024-01-07T12:13:14;9.65;;;8.75;;
28762;SDS011;15918;51.270;6.522;2024-01-07T12:15:41;9.40;;;8.32;;
28762;SDS011;15918;51.270;6.522;2024-01-07T12:18:07;9.07;;;8.18;;
28762;SDS011;15918;51.270;6.522;2024-01-07T12:20:32;9.18;;;8.27;;
28762;SDS011;15918;51.270;6.522;2024-01-07T12:23:07;9.88;;;8.63;;
28762;SDS011;15918;51.270;6.522;2024-01-07T12:25:34;11.40;;;9.05;;
28762;SDS011;15918;51.270;6.522;2024-01-07T12:28:00;9.40;;;8.50;;
28762;SDS011;15918;51.270;6.522;2024-01-07T12:30:26;8.63;;;7.80;;
28762;SDS011;15918;51.270;6.522;2024-01-07T12:32:52;10.05;;;8.43;;
28762;SDS011;15918;51.270;6.522;2024-01-07T12:35:18;9.75;;;8.75;;
28762;SDS011;15918;51.270;6.522;2024-01-07T12:37:44;10.65;;;9.25;;
28762;SDS011;15918;51.270;6.522;2024-01-07T12:40:10;10.30;;;9.07;;
28762;SDS011;15918;51.270;6.522;2024-01-07T12:42:37;11.15;;;9.50;;
28762;SDS011;15918;51.270;6.522;2024-01-07T12:45:05;10.07;;;9.07;;
28762;SDS011;15918;51.270;6.522;2024-01-07T12:47:32;10.52;;;9.23;;
28762;SDS011;15918;51.270;6.522;2024-01-07T12:49:58;9.23;;;8.38;;
28762;SDS011;15918;51.270;6.522;2024-01-07T12:52:24;9.55;;;8.57;;
28762;SDS011;15918;51.270;6.522;2024-01-07T12:54:50;12.43;;;9.35;;
28762;SDS011;15918;51.270;6.522;2024-01-07T12:57:15;9.73;;;8.77;;
28762;SDS011;15918;51.270;6.522;2024-01-07T12:59:41;10.57;;;9.50;;
28762;SDS011;15918;51.270;6.522;2024-01-07T13:02:06;10.15;;;9.15;;
28762;SDS011;15918;51.270;6.522;2024-01-07T13:04:32;10.73;;;9.48;;
28762;SDS011;15918;51.270;6.522;2024-01-07T13:06:58;10.60;;;9.50;;
28762;SDS011;15918;51.270;6.522;2024-01-07T13:09:23;9.43;;;8.52;;
28762;SDS011;15918;51.270;6.522;2024-01-07T13:11:49;9.68;;;7.90;;
28762;SDS011;15918;51.270;6.522;2024-01-07T13:14:14;9.60;;;8.55;;
28762;SDS011;15918;51.270;6.522;2024-01-07T13:16:40;9.85;;;8.30;;
28762;SDS011;15918;51.270;6.522;2024-01-07T13:19:05;10.10;;;8.48;;
28762;SDS011;15918;51.270;6.522;2024-01-07T13:21:31;8.40;;;7.45;;
28762;SDS011;15918;51.270;6.522;2024-01-07T13:23:58;7.95;;;7.15;;
28762;SDS011;15918;51.270;6.522;2024-01-07T13:26:25;7.57;;;6.88;;
28762;SDS011;15918;51.270;6.522;2024-01-07T13:28:51;8.93;;;7.28;;
28762;SDS011;15918;51.270;6.522;2024-01-07T13:31:16;8.90;;;8.10;;
28762;SDS011;15918;51.270;6.522;2024-01-07T13:33:42;8.70;;;7.43;;
28762;SDS011;15918;51.270;6.522;2024-01-07T13:36:08;8.10;;;7.22;;
28762;SDS011;15918;51.270;6.522;2024-01-07T13:38:35;8.35;;;6.82;;
28762;SDS011;15918;51.270;6.522;2024-01-07T13:41:03;7.55;;;6.68;;
28762;SDS011;15918;51.270;6.522;2024-01-07T13:43:29;7.55;;;6.40;;
28762;SDS011;15918;51.270;6.522;2024-01-07T13:45:55;7.10;;;6.13;;
28762;SDS011;15918;51.270;6.522;2024-01-07T13:48:21;6.95;;;6.25;;
28762;SDS011;15918;51.270;6.522;2024-01-07T13:50:46;7.85;;;6.38;;
28762;SDS011;15918;51.270;6.522;2024-01-07T13:53:14;6.50;;;5.90;;
28762;SDS011;15918;51.270;6.522;2024-01-07T13:55:40;6.72;;;5.72;;
28762;SDS011;15918;51.270;6.522;2024-01-07T13:58:05;7.78;;;6.43;;
28762;SDS011;15918;51.270;6.522;2024-01-07T14:00:31;8.60;;;6.60;;
28762;SDS011;15918;51.270;6.522;2024-01-07T14:02:56;9.75;;;6.85;;
28762;SDS011;15918;51.270;6.522;2024-01-07T14:05:22;6.88;;;6.28;;
28762;SDS011;15918;51.270;6.522;2024-01-07T14:07:48;7.55;;;6.82;;
28762;SDS011;15918;51.270;6.522;2024-01-07T14:10:13;6.75;;;6.05;;
28762;SDS011;15918;51.270;6.522;2024-01-07T14:12:39;8.05;;;6.18;;
28762;SDS011;15918;51.270;6.522;2024-01-07T14:15:05;5.80;;;5.32;;
28762;SDS011;15918;51.270;6.522;2024-01-07T14:17:31;7.30;;;5.75;;
28762;SDS011;15918;51.270;6.522;2024-01-07T14:19:57;7.15;;;5.93;;
28762;SDS011;15918;51.270;6.522;2024-01-07T14:22:22;7.63;;;6.18;;